Terminal Aerodrome Forecast
Issued by NWS

Home | Current Version | Previous Version | Text Only | Print | Product List | Glossary On
Versions: 1 2 3 4 5 6 7 8 9 10 11 12 13 14 15 16
000
FTUS45 KCYS 191737
TAFRWL
TAF
KRWL 191737Z 1918/2018 21017G25KT P6SM BKN100
     FM192200 24018G25KT P6SM VCSH BKN050 OVC080
     FM200000 25018G25KT 5SM -RASN BKN025 OVC050
     FM200600 26020G28KT P6SM SCT200=

USA.gov is the U.S. government's official web portal to all federal, state and local government web resources and services.